Thursday, November 23, 2017, 2:20 AM EST
Back to Local

KMTN, Baltimore / Martin

Location: Middle River, MD, United States Lat: 39.333
Local Time: 2:20 AM EST ( 7:20 GMT) Lon: -76.417
Time Zone: US/Eastern Elev: 22 ft

Show me the last for .
Show Coded

Time T Td Feel RH Dir Speed Gust Alt SLP Vis Weather Sky Remarks
2017-11-23 02:09 32 27 - 80 - Calm - 30.18 - 10 CLR None
2017-11-23 01:51 32 27 - 80 - Calm - 30.17 - 10 CLR None
2017-11-23 01:30 34 27 31 74 310° 3 - 30.16 - 10 CLR None
2017-11-23 01:09 34 27 27 74 300° 8 - 30.17 - 10 CLR None
2017-11-23 00:51 32 27 26 80 290° 7 - 30.18 - 10 CLR None
2017-11-23 00:30 34 27 - 74 - Calm - 30.19 - 10 CLR None
2017-11-23 00:09 34 27 29 74 280° 6 - 30.19 - 10 CLR None
2017-11-22 23:51 34 27 29 74 280° 6 - 30.19 - 10 CLR None
2017-11-22 23:30 36 27 29 69 290° 8 - 30.19 - 10 CLR None
2017-11-22 23:09 36 27 29 69 300° 8 - 30.19 - 10 CLR None
2017-11-22 22:51 37 27 32 64 300° 7 - 30.19 - 10 CLR None
2017-11-22 22:30 37 27 33 64 300° 6 - 30.20 - 10 CLR None
2017-11-22 22:09 37 27 32 64 300° 7 - 30.20 - 10 CLR None
2017-11-22 21:45 39 27 34 60 310° 8 - 30.19 - 10 CLR None
2017-11-22 20:45 39 27 34 60 310° 7 - 30.18 - 10 CLR None
2017-11-22 19:45 43 27 37 52 310° 9 - 30.15 - 10 FEW050 None
2017-11-22 18:45 45 28 37 52 310° 12 18 30.13 - 10 FEW050 None
2017-11-22 17:45 46 28 39 49 320° 12 20 30.11 - 10 BKN050 None
2017-11-22 16:45 48 30 42 49 310° 13 17 30.08 - 10 SCT050 None
2017-11-22 15:45 52 32 - 46 310° 13 24 30.06 - 10 SCT050 None
2017-11-22 14:45 52 30 - 43 300° 20 28 30.03 - 10 SCT055 None
2017-11-22 13:45 54 32 - 43 280° 23 29 30.01 - 10 SCT050 None
2017-11-22 12:45 55 36 - 47 290° 20 31 29.99 - 10 SCT055 None
2017-11-22 11:45 57 37 - 47 290° 29 36 29.97 - 10 BKN150 Peak wind: 35 mph (31 kts) from 290° at 40 min
2017-11-22 10:45 57 41 - 54 300° 25 32 29.97 - 10 FEW120 None
2017-11-22 09:45 55 48 - 76 300° 13 22 29.97 - 10 SCT120 None
2017-11-22 08:45 50 50 - 100 - Calm - 29.97 - 10 BKN090 BKN110 None
2017-11-22 07:45 48 48 - 100 - Calm - 29.95 - 10 BKN100 SCT200 None
2017-11-22 06:45 48 48 - 100 - Calm - 29.94 - 10 SCT050 OVC110 None
2017-11-22 05:45 - - - 0 - Calm - 29.92 - 6 RA OVC070 None
2017-11-22 05:36 48 48 - 100 - Calm - 29.92 - 10 -RA BKN080 OVC100 None
2017-11-22 05:30 48 48 47 100 280° 3 - 29.92 - 10 RA BKN080 OVC090 None
2017-11-22 05:09 48 48 - 100 - Calm - 29.92 - 10 RA SCT031 BKN070 OVC090 None
2017-11-22 04:51 48 46 - 93 - Calm - 29.92 - 10 DZ BKN031 BKN050 OVC100 None
2017-11-22 04:30 46 46 - 100 - Calm - 29.92 - 10 SCT029 SCT038 OVC100 None
2017-11-22 04:09 48 46 - 93 - Calm - 29.93 - 10 BKN110 None
2017-11-22 03:51 50 48 - 93 - Calm - 29.93 - 10 CLR None
2017-11-22 03:30 50 50 49 100 140° 3 - 29.94 - 10 CLR None
2017-11-22 03:09 50 50 48 100 100° 6 - 29.95 - 10 CLR None
2017-11-22 02:51 46 46 - 100 - Calm - 29.95 - 10 CLR None
2017-11-22 02:30 46 46 - 100 - Calm - 29.96 - 10 CLR None

Support USWX by starting your Amazon purchase here.